Time;durP1;ratioP1;P1;durP2;ratioP2;P2;SDS_P1;SDS_P2;PMS_P1;PMS_P2;Temp;Humidity;BMP_temperature;BMP_pressure;BME280_temperature;BME280_humidity;BME280_pressure;Samples;Min_cycle;Max_cycle;Signal;HPM_P1;HPM_P2
2022/04/01 00:02:23;;;;;;;25.95;17.52;;;1.90;99.90;;;;;;4319331;28;10000967;-67
2022/04/01 00:04:48;;;;;;;26.00;17.52;;;1.90;99.90;;;;;;5005026;28;20041;-67
2022/04/01 00:07:14;;;;;;;31.77;18.85;;;1.90;99.90;;;;;;5015215;28;20065;-67
2022/04/01 00:09:40;;;;;;;27.13;17.52;;;1.90;99.90;;;;;;5012501;28;20036;-67
2022/04/01 00:12:07;;;;;;;26.75;18.00;;;1.90;99.90;;;;;;5011068;28;20461;-67
2022/04/01 00:14:32;;;;;;;28.65;18.60;;;1.90;99.90;;;;;;5008624;28;20479;-67
2022/04/01 00:16:58;;;;;;;30.85;17.98;;;1.80;99.90;;;;;;5010965;28;20034;-67
2022/04/01 00:19:24;;;;;;;28.17;18.63;;;1.80;99.90;;;;;;5016477;28;20026;-67
2022/04/01 00:21:50;;;;;;;28.20;19.05;;;1.80;99.90;;;;;;5012744;28;20272;-67
2022/04/01 00:24:16;;;;;;;29.27;18.27;;;1.80;99.90;;;;;;5014221;28;20040;-67
2022/04/01 00:26:42;;;;;;;27.67;18.00;;;1.80;99.90;;;;;;5007767;28;20018;-67
2022/04/01 00:29:16;;;;;;;29.27;17.88;;;1.90;99.90;;;;;;5016704;28;20770;-67
2022/04/01 00:31:48;;;;;;;25.77;17.02;;;1.90;99.90;;;;;;5019501;28;20045;-66
2022/04/01 00:34:17;;;;;;;26.55;17.08;;;1.90;99.90;;;;;;5008047;28;20461;-66
2022/04/01 00:36:48;;;;;;;26.98;17.63;;;1.80;99.90;;;;;;5027590;28;20037;-66
2022/04/01 00:39:15;;;;;;;25.13;17.60;;;1.80;99.90;;;;;;5015801;28;20025;-67
2022/04/01 00:41:43;;;;;;;29.05;17.40;;;1.80;99.90;;;;;;5015749;28;20925;-66
2022/04/01 00:44:18;;;;;;;28.13;16.98;;;1.80;99.90;;;;;;5011236;28;20251;-67
2022/04/01 00:46:46;;;;;;;26.55;17.20;;;1.80;99.90;;;;;;5023935;28;20029;-66
2022/04/01 00:49:12;;;;;;;29.48;16.63;;;1.80;99.90;;;;;;5022925;28;20080;-67
2022/04/01 00:51:41;;;;;;;25.63;16.52;;;1.80;99.90;;;;;;5023358;28;20033;-67
2022/04/01 00:54:08;;;;;;;23.45;16.15;;;1.80;99.90;;;;;;5029374;28;20354;-67
2022/04/01 00:56:34;;;;;;;25.58;17.10;;;1.80;99.90;;;;;;5020376;28;20562;-66
2022/04/01 00:59:01;;;;;;;26.60;17.33;;;1.80;99.90;;;;;;5018162;28;20028;-67
2022/04/01 01:01:27;;;;;;;29.50;17.30;;;1.80;99.90;;;;;;5025580;28;20389;-67
2022/04/01 01:03:53;;;;;;;25.17;17.73;;;1.70;99.90;;;;;;5020279;28;20031;-67
2022/04/01 01:06:21;;;;;;;26.80;17.13;;;1.80;99.90;;;;;;5025563;28;20053;-67
2022/04/01 01:08:47;;;;;;;28.52;18.42;;;1.80;99.90;;;;;;5009397;28;20101;-67
2022/04/01 01:11:14;;;;;;;27.10;17.25;;;1.80;99.90;;;;;;5022207;28;20021;-67
2022/04/01 01:13:40;;;;;;;27.50;16.27;;;1.80;99.90;;;;;;5016154;28;20368;-67
2022/04/01 01:16:07;;;;;;;23.05;16.10;;;1.80;99.90;;;;;;5026436;28;20035;-67
2022/04/01 01:18:33;;;;;;;27.33;16.95;;;1.80;99.90;;;;;;5026520;28;20101;-67
2022/04/01 01:20:59;;;;;;;25.58;16.75;;;1.80;99.90;;;;;;5014787;28;20032;-67
2022/04/01 01:23:31;;;;;;;28.08;16.55;;;1.80;99.90;;;;;;5017170;28;20030;-67
2022/04/01 01:25:57;;;;;;;24.95;16.92;;;1.80;99.90;;;;;;5012220;28;20092;-67
2022/04/01 01:28:23;;;;;;;25.10;16.58;;;1.80;99.90;;;;;;5013479;28;20025;-67
2022/04/01 01:30:49;;;;;;;25.20;15.73;;;1.80;99.90;;;;;;5011860;28;20079;-67
2022/04/01 01:33:15;;;;;;;24.88;16.60;;;1.70;99.90;;;;;;5026120;28;20037;-66
2022/04/01 01:35:41;;;;;;;24.60;15.70;;;1.70;99.90;;;;;;5030917;28;20087;-67
2022/04/01 01:38:08;;;;;;;25.58;15.52;;;1.70;99.90;;;;;;5017795;28;20026;-66
2022/04/01 01:40:34;;;;;;;22.70;15.32;;;1.70;99.90;;;;;;5009820;28;20021;-66
2022/04/01 01:43:00;;;;;;;23.67;15.52;;;1.70;99.90;;;;;;5015895;28;20076;-66
2022/04/01 01:45:29;;;;;;;21.02;14.40;;;1.70;99.90;;;;;;5021837;28;20148;-67
2022/04/01 01:47:55;;;;;;;23.65;14.77;;;1.70;99.90;;;;;;5018733;28;20033;-67
2022/04/01 01:55:49;;;;;;;29.50;16.92;;;1.70;99.90;;;;;;5027357;28;20182;-67
2022/04/01 01:58:15;;;;;;;23.98;16.23;;;1.70;99.90;;;;;;5018433;28;20487;-67
2022/04/01 02:00:42;;;;;;;23.15;15.82;;;1.70;99.90;;;;;;5014850;28;20469;-67
2022/04/01 02:03:09;;;;;;;21.75;15.40;;;1.70;99.90;;;;;;5022403;28;21350;-67
2022/04/01 02:05:34;;;;;;;23.77;15.82;;;1.70;99.90;;;;;;5030667;28;20037;-67
2022/04/01 02:08:01;;;;;;;24.70;15.45;;;1.70;99.90;;;;;;5013978;28;20201;-67
2022/04/01 02:10:26;;;;;;;20.95;14.45;;;1.70;99.90;;;;;;5018859;28;20036;-67
2022/04/01 02:12:52;;;;;;;25.38;14.20;;;1.70;99.90;;;;;;5027656;28;20033;-67
2022/04/01 02:15:18;;;;;;;18.95;14.00;;;1.70;99.90;;;;;;5017613;28;20065;-67
2022/04/01 02:17:43;;;;;;;22.50;14.80;;;1.70;99.90;;;;;;5018382;28;20322;-67
2022/04/01 02:20:10;;;;;;;23.95;14.40;;;1.70;99.90;;;;;;5027701;28;22935;-67
2022/04/01 02:22:40;;;;;;;20.67;14.65;;;1.70;99.90;;;;;;5028139;28;20025;-67
2022/04/01 02:25:07;;;;;;;23.08;13.73;;;1.70;99.90;;;;;;5018105;28;20480;-67
2022/04/01 02:27:34;;;;;;;23.25;13.85;;;1.70;99.90;;;;;;5016399;28;20049;-67
2022/04/01 02:30:00;;;;;;;23.83;14.50;;;1.70;99.90;;;;;;5029437;28;20037;-67
2022/04/01 02:32:26;;;;;;;23.05;14.50;;;1.70;99.90;;;;;;5030019;28;20147;-67
2022/04/01 02:34:52;;;;;;;21.58;13.57;;;1.60;99.90;;;;;;5020843;28;20104;-67
2022/04/01 02:37:25;;;;;;;22.98;14.10;;;1.60;99.90;;;;;;5019375;28;20398;-67
2022/04/01 02:39:51;;;;;;;21.50;13.80;;;1.60;99.90;;;;;;5018662;28;20046;-67
2022/04/01 02:42:16;;;;;;;24.63;14.52;;;1.60;99.90;;;;;;5013472;28;20487;-67
2022/04/01 02:44:42;;;;;;;24.20;13.40;;;1.60;99.90;;;;;;5012232;28;20025;-67
2022/04/01 02:47:08;;;;;;;21.33;13.75;;;1.60;99.90;;;;;;5018945;28;20403;-67
2022/04/01 02:49:34;;;;;;;21.50;13.95;;;1.60;99.90;;;;;;5027463;28;20037;-67
2022/04/01 02:52:00;;;;;;;22.10;13.70;;;1.60;99.90;;;;;;5020469;28;20500;-67
2022/04/01 02:54:26;;;;;;;27.10;15.13;;;1.60;99.90;;;;;;5028256;28;20030;-67
2022/04/01 02:56:52;;;;;;;22.55;13.90;;;1.60;99.90;;;;;;5011286;28;20118;-67
2022/04/01 02:59:17;;;;;;;26.85;13.93;;;1.60;99.90;;;;;;5022283;28;20112;-67
2022/04/01 03:01:43;;;;;;;26.52;13.75;;;1.60;99.90;;;;;;5025133;28;20037;-67
2022/04/01 03:04:10;;;;;;;19.23;13.07;;;1.60;99.90;;;;;;5017793;28;20323;-67
2022/04/01 03:06:42;;;;;;;23.55;13.13;;;1.60;99.90;;;;;;5022486;28;20037;-67
2022/04/01 03:09:08;;;;;;;24.92;13.75;;;1.60;99.90;;;;;;5022599;28;20038;-67
2022/04/01 03:11:36;;;;;;;23.73;13.02;;;1.60;99.90;;;;;;5016666;28;20089;-67
2022/04/01 03:14:02;;;;;;;22.67;13.30;;;1.60;99.90;;;;;;5025602;28;20036;-67
2022/04/01 03:16:28;;;;;;;25.63;13.10;;;1.60;99.90;;;;;;5026701;28;20059;-67
2022/04/01 03:18:57;;;;;;;20.05;13.13;;;1.50;99.90;;;;;;5026176;28;20613;-67
2022/04/01 03:21:24;;;;;;;19.80;12.80;;;1.50;99.90;;;;;;5031684;28;20131;-67
2022/04/01 03:23:51;;;;;;;22.23;12.48;;;1.50;99.90;;;;;;5004754;28;20030;-67
2022/04/01 03:26:17;;;;;;;24.52;12.75;;;1.50;99.90;;;;;;5016514;28;20400;-67
2022/04/01 03:28:43;;;;;;;19.10;12.65;;;1.50;99.90;;;;;;5015671;28;20033;-67
2022/04/01 03:31:09;;;;;;;22.55;12.20;;;1.50;99.90;;;;;;5014614;28;20385;-67
2022/04/01 03:33:37;;;;;;;18.50;12.40;;;1.50;99.90;;;;;;5013731;28;20069;-67
2022/04/01 03:36:04;;;;;;;19.00;11.93;;;1.50;99.90;;;;;;5014828;28;20471;-67
2022/04/01 03:38:31;;;;;;;19.77;11.90;;;1.50;99.90;;;;;;5011014;28;22337;-67
2022/04/01 03:40:57;;;;;;;19.60;12.00;;;1.50;99.90;;;;;;5010884;28;20047;-67
2022/04/01 03:43:24;;;;;;;19.70;12.30;;;1.50;99.90;;;;;;5012533;28;20042;-67
2022/04/01 03:45:52;;;;;;;24.63;13.13;;;1.50;99.90;;;;;;5013327;28;20045;-68
2022/04/01 03:48:27;;;;;;;19.30;12.40;;;1.50;99.90;;;;;;5017412;28;20561;-68
2022/04/01 03:50:56;;;;;;;19.65;12.82;;;1.50;99.90;;;;;;5018528;28;20034;-68
2022/04/01 03:53:29;;;;;;;24.35;13.95;;;1.50;99.90;;;;;;5015806;28;20029;-68
2022/04/01 03:55:56;;;;;;;28.60;14.40;;;1.50;99.90;;;;;;5005900;28;21093;-68
2022/04/01 03:58:33;;;;;;;24.48;13.95;;;1.40;99.90;;;;;;5013671;28;20030;-68
2022/04/01 04:01:02;;;;;;;23.63;14.35;;;1.50;99.90;;;;;;5015818;28;20030;-67
2022/04/01 04:03:29;;;;;;;23.92;13.57;;;1.50;99.90;;;;;;5016468;28;20488;-68
2022/04/01 04:05:56;;;;;;;23.00;14.00;;;1.50;99.90;;;;;;5017332;28;20315;-67
2022/04/01 04:08:22;;;;;;;25.63;14.30;;;1.50;99.90;;;;;;5017382;28;20132;-67
2022/04/01 04:10:50;;;;;;;23.95;14.20;;;1.50;99.90;;;;;;5022795;28;20778;-68
2022/04/01 04:13:16;;;;;;;24.67;13.40;;;1.40;99.90;;;;;;5019360;28;20038;-67
2022/04/01 04:15:56;;;;;;;25.65;14.43;;;1.50;99.90;;;;;;5016915;28;20450;-67
2022/04/01 04:18:24;;;;;;;27.00;13.63;;;1.40;99.90;;;;;;5018190;28;20415;-67
2022/04/01 04:21:10;;;;;;;20.75;13.63;;;1.50;99.90;;;;;;5020867;28;20025;-67
2022/04/01 04:23:45;;;;;;;32.03;14.38;;;1.40;99.90;;;;;;5020520;28;20099;-67
2022/04/01 04:26:13;;;;;;;26.20;12.73;;;1.50;99.90;;;;;;5017220;28;20367;-67
2022/04/01 04:28:40;;;;;;;20.38;13.75;;;1.40;99.90;;;;;;5011193;28;20504;-67
2022/04/01 04:31:09;;;;;;;22.52;13.52;;;1.40;99.90;;;;;;5022293;28;20044;-67
2022/04/01 04:33:43;;;;;;;20.83;13.50;;;1.40;99.90;;;;;;5023545;28;20502;-68
2022/04/01 04:36:10;;;;;;;25.48;14.68;;;1.40;99.90;;;;;;5027398;28;20029;-67
2022/04/01 04:38:38;;;;;;;21.92;13.85;;;1.40;99.90;;;;;;5021955;28;20165;-67
2022/04/01 04:41:08;;;;;;;30.27;14.65;;;1.40;99.90;;;;;;5016588;28;20422;-67
2022/04/01 04:43:40;;;;;;;23.08;13.60;;;1.40;99.90;;;;;;5020009;28;20044;-67
2022/04/01 04:46:09;;;;;;;23.15;14.07;;;1.40;99.90;;;;;;5016855;28;20034;-67
2022/04/01 04:48:36;;;;;;;23.45;14.02;;;1.40;99.90;;;;;;5025381;28;20036;-67
2022/04/01 04:51:02;;;;;;;24.42;15.02;;;1.40;99.90;;;;;;5019770;28;20030;-67
2022/04/01 04:53:30;;;;;;;21.52;14.25;;;1.30;99.90;;;;;;5028640;28;20042;-67
2022/04/01 04:55:59;;;;;;;24.92;14.38;;;1.30;99.90;;;;;;5016607;28;20021;-67
2022/04/01 04:58:29;;;;;;;22.27;15.25;;;1.30;99.90;;;;;;4670334;28;10000575;-67
2022/04/01 05:01:07;;;;;;;23.52;16.30;;;1.30;99.90;;;;;;4998750;28;20036;-67
2022/04/01 05:03:53;;;;;;;27.13;15.93;;;1.20;99.90;;;;;;5017363;28;20060;-67
2022/04/01 05:06:25;;;;;;;25.13;16.27;;;1.20;99.90;;;;;;5008473;28;20096;-67
2022/04/01 05:09:00;;;;;;;27.98;16.75;;;1.20;99.90;;;;;;5017022;28;20103;-67
2022/04/01 05:11:47;;;;;;;24.75;16.05;;;1.20;99.90;;;;;;5014616;28;20120;-67
2022/04/01 05:14:34;;;;;;;25.27;15.65;;;1.10;99.90;;;;;;5004429;28;20115;-67
2022/04/01 05:17:15;;;;;;;28.35;15.73;;;1.10;99.90;;;;;;5008837;28;20072;-67
2022/04/01 05:19:59;;;;;;;23.40;15.75;;;1.10;99.90;;;;;;5010353;28;20022;-67
2022/04/01 05:22:50;;;;;;;24.30;15.10;;;1.10;99.90;;;;;;5004811;28;21191;-67
2022/04/01 05:25:19;;;;;;;22.00;15.00;;;1.10;99.90;;;;;;5021874;28;20038;-67
2022/04/01 05:27:52;;;;;;;24.92;15.07;;;1.10;99.90;;;;;;5028722;28;20033;-67
2022/04/01 05:30:20;;;;;;;24.65;15.50;;;1.10;99.90;;;;;;5030038;28;20045;-67
2022/04/01 05:33:08;;;;;;;26.15;15.43;;;1.00;99.90;;;;;;5038967;28;20091;-67
2022/04/01 05:35:40;;;;;;;24.73;14.68;;;1.00;99.90;;;;;;5038390;28;20358;-67
2022/04/01 05:38:10;;;;;;;22.05;14.77;;;1.10;99.90;;;;;;5044908;28;20025;-67
2022/04/01 05:40:37;;;;;;;24.30;14.80;;;1.10;99.90;;;;;;5036729;28;20028;-67
2022/04/01 05:43:04;;;;;;;21.27;14.30;;;1.10;99.90;;;;;;5037068;28;20045;-67
2022/04/01 05:45:31;;;;;;;24.67;14.68;;;1.00;99.90;;;;;;5038107;28;20032;-67
2022/04/01 05:47:58;;;;;;;23.20;14.60;;;1.00;99.90;;;;;;5046951;28;20029;-67
2022/04/01 05:50:26;;;;;;;20.90;14.23;;;1.00;99.90;;;;;;5040635;28;20508;-67
2022/04/01 05:52:54;;;;;;;21.48;14.20;;;1.00;99.90;;;;;;5035092;28;20025;-67
2022/04/01 05:55:25;;;;;;;25.15;14.40;;;1.00;99.90;;;;;;5040834;28;20427;-67
2022/04/01 05:57:55;;;;;;;22.38;14.45;;;1.00;99.90;;;;;;5052664;28;20463;-67
2022/04/01 06:00:21;;;;;;;21.75;14.40;;;0.90;99.90;;;;;;5047326;28;20020;-67
2022/04/01 06:02:58;;;;;;;20.67;13.68;;;0.90;99.90;;;;;;5040081;28;20087;-67
2022/04/01 06:05:48;;;;;;;23.17;13.57;;;1.00;99.90;;;;;;5037797;28;20031;-67
2022/04/01 06:08:23;;;;;;;20.70;13.75;;;1.00;99.90;;;;;;5040536;28;20071;-67
2022/04/01 06:11:08;;;;;;;21.75;13.77;;;1.00;99.90;;;;;;5051874;28;20377;-67
2022/04/01 06:13:39;;;;;;;17.75;12.23;;;1.00;99.90;;;;;;5048877;28;20053;-67
2022/04/01 06:16:20;;;;;;;19.30;12.35;;;1.00;99.90;;;;;;5037516;28;20029;-67
2022/04/01 06:18:59;;;;;;;18.60;12.35;;;1.00;99.90;;;;;;5045526;28;20448;-67
2022/04/01 06:21:27;;;;;;;20.33;12.73;;;0.90;99.90;;;;;;5043751;28;20051;-67
2022/04/01 06:24:07;;;;;;;19.35;11.80;;;1.00;99.90;;;;;;5035374;28;20178;-67
2022/04/01 06:26:46;;;;;;;19.42;12.43;;;0.90;99.90;;;;;;5032308;28;20040;-67
2022/04/01 06:29:18;;;;;;;17.50;12.15;;;0.90;99.90;;;;;;5042398;28;20025;-67
2022/04/01 06:31:52;;;;;;;18.60;11.90;;;0.90;99.90;;;;;;5041519;28;20049;-67
2022/04/01 06:34:18;;;;;;;19.45;11.40;;;1.00;99.90;;;;;;5029795;28;20100;-67
2022/04/01 06:36:59;;;;;;;17.05;10.50;;;0.90;99.90;;;;;;5039450;28;20111;-67
2022/04/01 06:39:45;;;;;;;15.02;10.07;;;0.90;99.90;;;;;;5044056;28;20440;-67
2022/04/01 06:42:22;;;;;;;18.20;11.23;;;0.90;99.90;;;;;;5042302;28;20284;-67
2022/04/01 06:44:48;;;;;;;14.80;10.27;;;0.90;99.90;;;;;;5042369;28;20033;-67
2022/04/01 06:47:14;;;;;;;15.23;10.23;;;0.90;99.90;;;;;;5047206;28;20036;-67
2022/04/01 06:49:40;;;;;;;14.63;9.57;;;0.80;99.90;;;;;;5047765;28;20328;-67
2022/04/01 06:52:07;;;;;;;13.57;9.85;;;0.80;99.90;;;;;;5041709;28;20037;-67
2022/04/01 06:54:33;;;;;;;14.27;9.20;;;0.80;99.90;;;;;;5044144;28;20067;-67
2022/04/01 06:56:59;;;;;;;14.50;10.07;;;0.80;99.90;;;;;;5036796;28;20025;-67
2022/04/01 06:59:24;;;;;;;12.30;9.77;;;0.80;99.90;;;;;;5041022;28;20029;-67
2022/04/01 07:01:50;;;;;;;12.68;9.60;;;0.80;99.90;;;;;;5032391;28;20028;-67
2022/04/01 07:04:15;;;;;;;15.90;10.55;;;0.80;99.90;;;;;;5038327;28;20063;-67
2022/04/01 07:06:41;;;;;;;13.10;9.18;;;0.80;99.90;;;;;;5029897;28;20033;-67
2022/04/01 07:09:07;;;;;;;13.40;9.05;;;0.80;99.90;;;;;;5037548;28;20116;-67
2022/04/01 07:11:34;;;;;;;13.88;9.77;;;0.80;99.90;;;;;;5039993;28;20428;-67
2022/04/01 07:14:00;;;;;;;13.20;9.85;;;0.70;99.90;;;;;;5052208;28;20032;-67
2022/04/01 07:16:25;;;;;;;12.10;8.98;;;0.70;99.90;;;;;;5042597;28;20580;-67
2022/04/01 07:18:51;;;;;;;14.98;9.63;;;0.70;99.90;;;;;;5045114;28;20311;-67
2022/04/01 07:21:17;;;;;;;15.93;9.43;;;0.80;99.90;;;;;;5026386;28;20496;-67
2022/04/01 07:23:43;;;;;;;14.73;9.57;;;0.80;99.90;;;;;;5035164;28;20079;-67
2022/04/01 07:26:09;;;;;;;12.98;8.68;;;0.80;99.90;;;;;;5042383;28;20634;-68
2022/04/01 07:28:36;;;;;;;13.25;9.82;;;0.80;99.90;;;;;;5049061;28;20061;-67
2022/04/01 07:32:29;;;;;;;14.27;9.40;;;0.80;99.90;;;;;;5051493;28;20440;-68
2022/04/01 07:33:47;;;;;;;14.02;10.13;;;0.80;99.90;;;;;;5052649;28;20040;-67
2022/04/01 07:36:13;;;;;;;14.13;10.23;;;0.80;99.90;;;;;;5060981;28;20077;-68
2022/04/01 07:38:39;;;;;;;16.55;10.52;;;0.80;99.90;;;;;;5026835;28;20486;-68
2022/04/01 07:41:05;;;;;;;14.90;10.32;;;0.80;99.90;;;;;;5026615;28;20504;-68
2022/04/01 07:43:31;;;;;;;16.92;10.50;;;0.80;99.90;;;;;;5025610;28;20065;-67
2022/04/01 07:45:57;;;;;;;14.75;10.18;;;0.70;99.90;;;;;;5048979;28;20090;-67
2022/04/01 07:48:23;;;;;;;16.15;11.30;;;0.70;99.90;;;;;;5060755;28;20025;-67
2022/04/01 07:50:49;;;;;;;17.80;12.20;;;0.70;99.90;;;;;;5041685;28;20115;-67
2022/04/01 07:53:16;;;;;;;20.08;12.18;;;0.70;99.90;;;;;;5050036;28;20609;-67
2022/04/01 07:55:43;;;;;;;17.40;12.45;;;0.70;99.90;;;;;;5035210;28;20037;-67
2022/04/01 07:58:10;;;;;;;17.08;12.05;;;0.60;99.90;;;;;;5058255;28;20036;-67
2022/04/01 08:00:35;;;;;;;16.88;11.50;;;0.70;99.90;;;;;;5054524;28;20059;-67
2022/04/01 08:03:01;;;;;;;18.73;11.43;;;0.70;99.90;;;;;;5039788;28;20071;-67
2022/04/01 08:05:27;;;;;;;19.65;12.77;;;0.70;99.90;;;;;;5057977;28;20037;-67
2022/04/01 08:07:53;;;;;;;18.58;12.77;;;0.70;99.90;;;;;;5044502;28;20033;-67
2022/04/01 08:10:18;;;;;;;17.08;11.77;;;0.70;99.90;;;;;;5045996;28;20040;-67
2022/04/01 08:12:44;;;;;;;15.43;10.98;;;0.70;99.90;;;;;;5043347;28;20366;-67
2022/04/01 08:15:11;;;;;;;17.13;11.70;;;0.80;99.90;;;;;;5033035;28;20028;-67
2022/04/01 08:17:37;;;;;;;18.23;12.70;;;0.80;99.90;;;;;;5042992;28;20025;-67
2022/04/01 08:20:04;;;;;;;16.15;11.45;;;0.80;99.90;;;;;;5047437;28;20033;-67
2022/04/01 08:22:29;;;;;;;16.90;11.30;;;0.80;99.90;;;;;;5057700;28;20036;-67
2022/04/01 08:24:55;;;;;;;15.15;11.00;;;0.80;99.90;;;;;;5040729;28;20053;-67
2022/04/01 08:27:21;;;;;;;15.38;10.70;;;0.80;99.90;;;;;;5026317;28;20057;-67
2022/04/01 08:29:47;;;;;;;14.25;10.23;;;0.80;99.90;;;;;;5047796;28;20556;-67
2022/04/01 08:32:13;;;;;;;15.30;10.55;;;0.80;99.90;;;;;;5065561;28;20136;-67
2022/04/01 08:34:39;;;;;;;15.15;10.55;;;0.80;99.90;;;;;;5031594;28;20033;-67
2022/04/01 08:37:06;;;;;;;15.57;10.18;;;0.90;99.90;;;;;;5043799;28;20037;-67
2022/04/01 08:39:32;;;;;;;18.08;10.18;;;0.90;99.90;;;;;;5031336;28;20574;-67
2022/04/01 08:41:58;;;;;;;13.70;9.48;;;1.00;99.90;;;;;;5027383;28;20036;-67
2022/04/01 08:44:24;;;;;;;13.38;9.70;;;1.10;99.90;;;;;;5024909;28;20033;-67
2022/04/01 08:46:50;;;;;;;12.05;9.45;;;1.10;99.90;;;;;;5063074;28;20461;-67
2022/04/01 08:49:16;;;;;;;13.55;9.25;;;1.10;99.90;;;;;;5043527;28;20040;-67
2022/04/01 08:51:41;;;;;;;15.07;9.95;;;1.20;99.90;;;;;;5029630;28;20501;-68
2022/04/01 08:54:07;;;;;;;13.18;9.82;;;1.30;99.90;;;;;;5027993;28;20025;-67
2022/04/01 08:56:33;;;;;;;13.20;10.32;;;;;;;;;;5029230;28;20072;-66
2022/04/01 08:58:59;;;;;;;14.02;10.73;;;1.30;99.90;;;;;;5031805;28;22277;-69
2022/04/01 09:01:37;;;;;;;15.13;10.57;;;1.20;99.90;;;;;;5060988;28;20060;-69
2022/04/01 09:04:16;;;;;;;15.05;10.63;;;1.30;99.90;;;;;;5044689;28;20025;-69
2022/04/01 09:06:42;;;;;;;14.85;9.68;;;1.30;99.90;;;;;;5046959;28;20071;-69
2022/04/01 09:09:24;;;;;;;14.40;9.82;;;1.30;99.90;;;;;;5043818;28;20033;-69
2022/04/01 09:12:05;;;;;;;12.52;9.25;;;1.30;99.90;;;;;;5047503;28;20049;-69
2022/04/01 09:14:32;;;;;;;13.52;9.70;;;1.30;99.90;;;;;;5033777;28;20025;-69
2022/04/01 09:16:57;;;;;;;11.48;9.07;;;1.30;99.90;;;;;;5068682;28;20416;-69
2022/04/01 09:19:35;;;;;;;13.05;9.45;;;1.20;99.90;;;;;;5063005;28;20025;-69
2022/04/01 09:22:21;;;;;;;12.60;9.18;;;1.20;99.90;;;;;;5045460;28;20477;-68
2022/04/01 09:24:58;;;;;;;13.23;9.27;;;1.30;99.90;;;;;;5045763;28;20040;-69
2022/04/01 09:27:42;;;;;;;13.15;9.00;;;1.30;99.90;;;;;;5034234;28;20037;-69
2022/04/01 09:30:24;;;;;;;15.57;10.05;;;1.30;99.90;;;;;;4821241;28;10001952;-69
2022/04/01 09:32:59;;;;;;;13.90;9.55;;;1.30;99.90;;;;;;5044859;28;20276;-68
2022/04/01 09:35:27;;;;;;;13.90;9.65;;;1.30;99.90;;;;;;5041496;28;20029;-68
2022/04/01 09:37:57;;;;;;;14.48;10.63;;;1.30;99.90;;;;;;5046189;28;20037;-68
2022/04/01 09:40:23;;;;;;;13.82;10.00;;;1.30;99.90;;;;;;5045640;28;20028;-68
2022/04/01 09:42:51;;;;;;;13.93;10.82;;;1.20;99.90;;;;;;5048556;28;20049;-68
2022/04/01 09:45:22;;;;;;;15.45;10.65;;;1.20;99.90;;;;;;5038378;28;20048;-67
2022/04/01 09:48:08;;;;;;;15.80;11.40;;;1.20;99.90;;;;;;5037131;28;20909;-69
2022/04/01 09:50:36;;;;;;;15.57;11.55;;;1.10;99.90;;;;;;5047081;28;20055;-69
2022/04/01 09:53:24;;;;;;;16.52;12.18;;;1.00;99.90;;;;;;5042917;28;20033;-69
2022/04/01 09:55:52;;;;;;;15.63;11.68;;;1.10;99.90;;;;;;5039661;28;20072;-68
2022/04/01 09:58:20;;;;;;;17.63;11.90;;;1.10;99.90;;;;;;5052588;28;20063;-69
2022/04/01 10:00:47;;;;;;;16.42;11.70;;;1.00;99.90;;;;;;5045038;28;20090;-69
2022/04/01 10:03:17;;;;;;;16.95;12.15;;;1.00;99.90;;;;;;5047063;28;20047;-69
2022/04/01 10:05:45;;;;;;;15.23;11.15;;;1.00;99.90;;;;;;5029945;28;20575;-69
2022/04/01 10:08:12;;;;;;;17.83;12.65;;;1.00;99.90;;;;;;5040483;28;20045;-69
2022/04/01 10:10:39;;;;;;;17.83;11.90;;;1.00;99.90;;;;;;5046363;28;20036;-68
2022/04/01 10:13:09;;;;;;;15.25;10.80;;;1.00;99.90;;;;;;5050271;28;20037;-68
2022/04/01 10:15:40;;;;;;;15.43;11.43;;;1.10;99.90;;;;;;5048279;28;20154;-68
2022/04/01 10:18:07;;;;;;;16.23;11.70;;;1.10;99.90;;;;;;5040748;28;20067;-67
2022/04/01 10:20:35;;;;;;;19.75;11.82;;;1.10;99.90;;;;;;5044813;28;20029;-67
2022/04/01 10:23:11;;;;;;;21.42;12.88;;;1.10;99.90;;;;;;5037936;28;20064;-68
2022/04/01 10:25:57;;;;;;;15.55;11.63;;;1.20;99.90;;;;;;5032893;28;20040;-68
2022/04/01 10:28:23;;;;;;;17.02;12.13;;;1.20;99.90;;;;;;5045560;28;20067;-68
2022/04/01 10:31:13;;;;;;;17.52;11.27;;;1.20;99.90;;;;;;5041533;28;20418;-69
2022/04/01 10:33:38;;;;;;;21.20;11.55;;;1.20;99.90;;;;;;5039459;28;20321;-68
2022/04/01 10:36:27;;;;;;;14.93;10.43;;;1.10;99.90;;;;;;5047986;28;20032;-68
2022/04/01 10:39:05;;;;;;;16.05;11.23;;;1.00;99.90;;;;;;5037182;28;20396;-67
2022/04/01 10:41:31;;;;;;;15.27;10.50;;;1.00;99.90;;;;;;5035472;28;20063;-68
2022/04/01 10:43:58;;;;;;;16.83;10.48;;;0.90;99.90;;;;;;5045130;28;20470;-68
2022/04/01 10:46:24;;;;;;;15.65;11.60;;;0.90;99.90;;;;;;5042737;28;20303;-67
2022/04/01 10:52:10;;;;;;;14.30;10.40;;;1.00;99.90;;;;;;5034691;28;20039;-67
2022/04/01 10:54:42;;;;;;;16.77;10.80;;;0.90;99.90;;;;;;5033080;28;20045;-67
2022/04/01 10:57:10;;;;;;;17.00;10.88;;;0.90;99.90;;;;;;5040665;28;20051;-66
2022/04/01 10:59:45;;;;;;;19.42;12.98;;;1.00;99.90;;;;;;5035444;28;20038;-67
2022/04/01 11:02:15;;;;;;;17.50;13.00;;;1.00;99.90;;;;;;5044309;28;20041;-66
2022/04/01 11:04:43;;;;;;;19.27;12.85;;;0.90;99.90;;;;;;5035101;28;20104;-66
2022/04/01 11:07:14;;;;;;;16.33;11.70;;;1.00;99.90;;;;;;5034965;28;20065;-67
2022/04/01 11:09:50;;;;;;;17.60;12.50;;;0.90;99.90;;;;;;5032224;28;20021;-67
2022/04/01 11:12:19;;;;;;;17.77;12.88;;;0.90;99.90;;;;;;5028342;28;20296;-67
2022/04/01 11:15:07;;;;;;;17.27;11.70;;;0.80;99.90;;;;;;5035998;28;20032;-66
2022/04/01 11:17:35;;;;;;;18.50;12.27;;;0.80;99.90;;;;;;5034534;28;20037;-67
2022/04/01 11:20:12;;;;;;;18.20;13.05;;;0.80;99.90;;;;;;5046880;28;20492;-67
2022/04/01 11:23:10;;;;;;;19.02;12.55;;;0.80;99.90;;;;;;5041801;28;20106;-67
2022/04/01 11:25:36;;;;;;;15.52;11.63;;;0.70;99.90;;;;;;5035154;28;20044;-67
2022/04/01 11:28:14;;;;;;;17.70;11.68;;;0.70;99.90;;;;;;5032162;28;20750;-67
2022/04/01 11:30:54;;;;;;;16.27;12.45;;;0.60;99.90;;;;;;5033135;28;20045;-67
2022/04/01 11:33:22;;;;;;;16.65;11.65;;;0.60;99.90;;;;;;5042757;28;20625;-66
2022/04/01 11:35:53;;;;;;;21.02;13.00;;;0.70;99.90;;;;;;5038026;28;20025;-67
2022/04/01 11:38:21;;;;;;;19.33;12.68;;;0.70;99.90;;;;;;5035707;28;20037;-67
2022/04/01 11:40:53;;;;;;;20.10;12.63;;;0.70;99.90;;;;;;5034613;28;20033;-68
2022/04/01 11:43:21;;;;;;;18.50;11.88;;;0.70;99.90;;;;;;5034083;28;20503;-67
2022/04/01 11:45:54;;;;;;;21.65;13.18;;;0.70;99.90;;;;;;5046960;28;20047;-67
2022/04/01 11:48:27;;;;;;;19.02;12.75;;;0.70;99.90;;;;;;5037609;28;20036;-68
2022/04/01 11:50:56;;;;;;;15.63;11.27;;;0.70;99.90;;;;;;5030223;28;20033;-67
2022/04/01 11:53:29;;;;;;;21.42;11.50;;;0.60;99.90;;;;;;5039586;28;20044;-66
2022/04/01 11:55:55;;;;;;;;;;;0.60;99.90;;;;;;5036591;28;20384;-67
2022/04/01 11:58:22;;;;;;;21.42;12.48;;;0.50;99.90;;;;;;5043124;28;19909;-67
2022/04/01 12:00:48;;;;;;;20.98;12.38;;;0.60;99.90;;;;;;5040125;28;20033;-68
2022/04/01 12:03:14;;;;;;;20.15;12.10;;;0.60;99.90;;;;;;5035978;28;20481;-68
2022/04/01 12:05:40;;;;;;;17.27;12.18;;;0.60;99.90;;;;;;5031004;28;20479;-67
2022/04/01 12:10:52;;;;;;;18.05;11.23;;;0.70;99.90;;;;;;5053001;28;20146;-69
2022/04/01 12:13:18;;;;;;;19.52;12.88;;;0.70;99.90;;;;;;5034703;28;20041;-68
2022/04/01 12:15:46;;;;;;;22.27;13.80;;;0.70;99.90;;;;;;5026998;28;20021;-68
2022/04/01 12:18:17;;;;;;;19.35;12.75;;;0.60;99.90;;;;;;5038263;28;20139;-68
2022/04/01 12:20:46;;;;;;;19.40;12.55;;;0.60;99.90;;;;;;5028403;28;20041;-68
2022/04/01 12:23:14;;;;;;;24.27;13.75;;;0.60;99.90;;;;;;5040526;28;20033;-69
2022/04/01 12:25:42;;;;;;;20.98;13.68;;;0.70;99.90;;;;;;5043664;28;20109;-68
2022/04/01 12:28:11;;;;;;;21.27;13.23;;;0.60;99.90;;;;;;5050916;28;20029;-68
2022/04/01 12:30:47;;;;;;;20.42;12.57;;;0.70;99.90;;;;;;5044820;28;20496;-68
2022/04/01 12:33:24;;;;;;;26.00;14.02;;;0.70;99.90;;;;;;5048130;28;20048;-69
2022/04/01 12:35:52;;;;;;;24.92;13.10;;;0.80;99.90;;;;;;5040397;28;20032;-68
2022/04/01 12:38:19;;;;;;;25.88;14.40;;;0.70;99.90;;;;;;5043712;28;20112;-68
2022/04/01 12:40:44;;;;;;;21.48;13.05;;;0.80;99.90;;;;;;5060324;28;20348;-68
2022/04/01 12:43:28;;;;;;;19.60;12.65;;;0.80;99.90;;;;;;5048134;28;20523;-69
2022/04/01 12:46:04;;;;;;;20.85;12.52;;;0.80;99.90;;;;;;5030891;28;20037;-69
2022/04/01 12:48:30;;;;;;;22.15;12.73;;;0.70;99.90;;;;;;5063663;28;20052;-68
2022/04/01 12:50:58;;;;;;;21.20;12.77;;;0.70;99.90;;;;;;5038089;28;20033;-68
2022/04/01 12:53:24;;;;;;;20.40;12.55;;;0.60;99.90;;;;;;5042092;28;20127;-69
2022/04/01 12:55:50;;;;;;;21.90;13.52;;;0.70;99.90;;;;;;5046439;28;20125;-69
2022/04/01 12:58:16;;;;;;;24.67;13.80;;;0.60;99.90;;;;;;5046561;28;20511;-68
2022/04/01 13:00:42;;;;;;;19.58;12.40;;;0.70;99.90;;;;;;5034078;28;20356;-67
2022/04/01 13:03:08;;;;;;;18.63;12.68;;;0.60;99.90;;;;;;5030029;28;20505;-67